Time;durP1;ratioP1;P1;durP2;ratioP2;P2;SDS_P1;SDS_P2;PMS_P1;PMS_P2;Temp;Humidity;BMP_temperature;BMP_pressure;BME280_temperature;BME280_humidity;BME280_pressure;Samples;Min_cycle;Max_cycle;Signal;HPM_P1;HPM_P2
2023/04/11 00:00:32;;;;;;;9.13;6.25;;;13.10;75.70;;;;;;5030856;28;20163;-67
2023/04/11 00:02:58;;;;;;;8.57;6.15;;;13.20;75.80;;;;;;5019265;28;20028;-68
2023/04/11 00:05:26;;;;;;;7.93;5.55;;;13.10;75.90;;;;;;5022161;28;20515;-67
2023/04/11 00:07:52;;;;;;;8.77;6.82;;;13.10;75.80;;;;;;5012009;28;20234;-67
2023/04/11 00:10:17;;;;;;;9.85;6.78;;;13.10;75.80;;;;;;5013044;28;20113;-67
2023/04/11 00:12:43;;;;;;;8.63;6.88;;;13.10;75.80;;;;;;5017680;28;20022;-67
2023/04/11 00:15:09;;;;;;;9.00;6.05;;;13.10;75.90;;;;;;5029930;28;20042;-67
2023/04/11 00:17:36;;;;;;;9.45;6.53;;;13.10;75.90;;;;;;5013266;28;20044;-67
2023/04/11 00:20:06;;;;;;;8.70;6.97;;;13.00;76.00;;;;;;5033315;28;20061;-67
2023/04/11 00:22:34;;;;;;;7.78;6.32;;;13.00;76.10;;;;;;5021118;28;20025;-66
2023/04/11 00:25:00;;;;;;;8.52;6.55;;;13.00;76.00;;;;;;5022854;28;20021;-67
2023/04/11 00:27:26;;;;;;;7.50;6.05;;;13.00;76.10;;;;;;5015526;28;20544;-67
2023/04/11 00:29:53;;;;;;;9.32;6.32;;;13.00;76.20;;;;;;5011519;28;20033;-67
2023/04/11 00:32:19;;;;;;;8.27;6.35;;;13.00;76.20;;;;;;5015612;28;20042;-67
2023/04/11 00:34:45;;;;;;;7.88;6.30;;;13.00;76.20;;;;;;5012133;28;20038;-67
2023/04/11 00:37:11;;;;;;;8.68;6.60;;;13.00;76.30;;;;;;5025042;28;20508;-68
2023/04/11 00:39:37;;;;;;;7.18;6.05;;;13.00;76.30;;;;;;5011820;28;20092;-67
2023/04/11 00:42:04;;;;;;;8.60;6.63;;;13.00;76.40;;;;;;5022952;28;20029;-67
2023/04/11 00:44:30;;;;;;;7.68;6.20;;;13.00;76.40;;;;;;5012280;28;20056;-67
2023/04/11 00:46:56;;;;;;;9.18;7.00;;;12.90;76.40;;;;;;5014752;28;20457;-67
2023/04/11 00:49:22;;;;;;;7.63;6.47;;;12.90;76.90;;;;;;5011584;28;20200;-67
2023/04/11 00:51:47;;;;;;;8.43;5.70;;;12.90;76.60;;;;;;5024556;28;20495;-67
2023/04/11 00:54:15;;;;;;;8.82;5.95;;;12.90;76.60;;;;;;5011246;28;20485;-67
2023/04/11 00:56:42;;;;;;;8.35;5.90;;;12.90;76.50;;;;;;5024748;28;20180;-67
2023/04/11 00:59:08;;;;;;;8.18;5.95;;;12.90;76.50;;;;;;5011900;28;20045;-67
2023/04/11 01:01:35;;;;;;;8.40;5.97;;;12.80;76.60;;;;;;5026586;28;20033;-67
2023/04/11 01:04:01;;;;;;;7.60;6.07;;;12.80;76.70;;;;;;5014689;28;20068;-67
2023/04/11 01:06:29;;;;;;;8.57;6.13;;;12.80;76.70;;;;;;5029806;28;20021;-67
2023/04/11 01:08:56;;;;;;;9.18;6.43;;;12.80;76.80;;;;;;5015399;28;20485;-67
2023/04/11 01:11:22;;;;;;;7.95;6.00;;;12.80;76.80;;;;;;5031874;28;20051;-67
2023/04/11 01:13:49;;;;;;;8.38;6.40;;;12.70;76.90;;;;;;5026132;28;20046;-67
2023/04/11 01:16:15;;;;;;;9.45;6.32;;;12.70;76.80;;;;;;5032894;28;20042;-67
2023/04/11 01:18:41;;;;;;;8.23;6.10;;;12.70;77.00;;;;;;5018880;28;20486;-67
2023/04/11 01:21:07;;;;;;;7.38;5.93;;;12.60;77.00;;;;;;5020259;28;20060;-67
2023/04/11 01:23:33;;;;;;;8.20;6.70;;;12.60;77.10;;;;;;5015283;28;20057;-66
2023/04/11 01:25:58;;;;;;;8.45;6.38;;;12.60;77.10;;;;;;5020700;28;20111;-68
2023/04/11 01:28:24;;;;;;;9.68;6.88;;;12.60;77.20;;;;;;5015018;28;20140;-67
2023/04/11 01:30:50;;;;;;;8.80;6.95;;;12.60;77.30;;;;;;5017753;28;20672;-67
2023/04/11 01:33:16;;;;;;;7.35;5.95;;;12.60;77.20;;;;;;5015493;28;20032;-67
2023/04/11 01:35:42;;;;;;;9.07;6.97;;;12.60;77.20;;;;;;5024987;28;20056;-67
2023/04/11 01:38:08;;;;;;;8.48;6.35;;;12.60;77.30;;;;;;5015586;28;20037;-67
2023/04/11 01:40:34;;;;;;;8.82;6.05;;;12.60;77.40;;;;;;5030346;28;20389;-67
2023/04/11 01:43:03;;;;;;;9.18;6.60;;;12.50;77.30;;;;;;5015291;28;20032;-67
2023/04/11 01:45:29;;;;;;;7.68;5.90;;;12.60;77.50;;;;;;5021708;28;20385;-67
2023/04/11 01:47:56;;;;;;;9.82;6.75;;;12.60;77.60;;;;;;5034987;28;20041;-67
2023/04/11 01:50:22;;;;;;;8.40;6.50;;;12.60;77.50;;;;;;5015297;28;20032;-66
2023/04/11 01:52:49;;;;;;;8.48;6.13;;;12.60;77.70;;;;;;5016546;28;20398;-66
2023/04/11 01:55:15;;;;;;;7.65;6.05;;;12.60;77.70;;;;;;5043058;28;20037;-66
2023/04/11 01:57:40;;;;;;;8.65;6.32;;;12.60;77.70;;;;;;5054323;28;20021;-66
2023/04/11 02:00:09;;;;;;;9.07;6.32;;;12.50;77.70;;;;;;5030790;28;20084;-66
2023/04/11 02:02:36;;;;;;;8.27;6.45;;;12.50;77.70;;;;;;5017338;28;20054;-66
2023/04/11 02:05:02;;;;;;;8.18;6.10;;;12.60;77.80;;;;;;5018118;28;20399;-66
2023/04/11 02:07:28;;;;;;;9.20;6.53;;;12.50;77.80;;;;;;5013822;28;20056;-67
2023/04/11 02:09:55;;;;;;;9.50;6.32;;;12.60;77.80;;;;;;5015125;28;20551;-67
2023/04/11 02:12:20;;;;;;;10.73;6.68;;;12.50;77.90;;;;;;5033050;28;20025;-67
2023/04/11 02:14:46;;;;;;;9.00;6.57;;;12.50;77.90;;;;;;5021132;28;20053;-68
2023/04/11 02:17:12;;;;;;;9.48;7.38;;;12.50;78.00;;;;;;5018556;28;20094;-67
2023/04/11 02:19:44;;;;;;;9.13;6.68;;;12.50;78.00;;;;;;5026298;28;20493;-67
2023/04/11 02:22:11;;;;;;;8.90;6.65;;;12.60;77.90;;;;;;5035025;28;20041;-67
2023/04/11 02:24:37;;;;;;;8.77;6.18;;;12.50;78.00;;;;;;5032891;28;20033;-67
2023/04/11 02:27:02;;;;;;;8.93;6.20;;;12.50;77.90;;;;;;5029832;28;20025;-67
2023/04/11 02:29:28;;;;;;;9.63;7.43;;;12.50;77.90;;;;;;5024638;28;20032;-67
2023/04/11 02:31:54;;;;;;;9.68;6.38;;;12.50;78.00;;;;;;5021548;28;20060;-67
2023/04/11 02:34:20;;;;;;;8.20;6.15;;;12.50;78.00;;;;;;5020069;28;20037;-67
2023/04/11 02:36:46;;;;;;;9.63;6.47;;;12.50;78.10;;;;;;5014612;28;20026;-68
2023/04/11 02:39:12;;;;;;;8.02;6.57;;;12.50;78.10;;;;;;5035218;28;20072;-67
2023/04/11 02:41:39;;;;;;;8.23;6.53;;;12.50;78.10;;;;;;5014999;28;20389;-67
2023/04/11 02:44:05;;;;;;;8.77;6.63;;;12.50;78.20;;;;;;5029905;28;20030;-66
2023/04/11 02:46:30;;;;;;;8.70;5.80;;;12.50;78.30;;;;;;5025442;28;20025;-67
2023/04/11 02:48:56;;;;;;;8.90;6.80;;;12.40;78.40;;;;;;5021337;28;20134;-67
2023/04/11 02:51:22;;;;;;;7.88;6.50;;;12.40;78.40;;;;;;5019546;28;20025;-67
2023/04/11 02:53:47;;;;;;;8.93;6.55;;;12.40;78.40;;;;;;5013624;28;20046;-68
2023/04/11 02:56:17;;;;;;;8.55;6.15;;;12.40;78.50;;;;;;5017397;28;20125;-67
2023/04/11 02:58:46;;;;;;;9.70;6.63;;;12.40;78.60;;;;;;5014517;28;20029;-67
2023/04/11 03:01:13;;;;;;;10.73;6.40;;;12.30;78.60;;;;;;5013206;28;20451;-67
2023/04/11 03:03:40;;;;;;;8.00;6.28;;;12.40;79.20;;;;;;5019273;28;20029;-66
2023/04/11 03:06:06;;;;;;;8.73;6.45;;;12.30;78.80;;;;;;5018616;28;20528;-66
2023/04/11 03:08:34;;;;;;;8.73;6.68;;;12.30;78.80;;;;;;5029079;28;20034;-66
2023/04/11 03:11:00;;;;;;;8.68;6.70;;;12.30;78.80;;;;;;5022814;28;20124;-66
2023/04/11 03:13:26;;;;;;;8.50;6.32;;;12.30;78.90;;;;;;5024875;28;20026;-67
2023/04/11 03:15:51;;;;;;;8.32;6.85;;;12.30;78.90;;;;;;5018563;28;20480;-67
2023/04/11 03:18:17;;;;;;;8.13;6.07;;;12.30;79.00;;;;;;5014695;28;20385;-67
2023/04/11 03:20:43;;;;;;;8.23;5.95;;;12.30;79.00;;;;;;5022002;28;20033;-67
2023/04/11 03:23:09;;;;;;;8.60;6.47;;;12.30;79.10;;;;;;5018140;28;20104;-67
2023/04/11 03:25:37;;;;;;;7.90;5.88;;;12.30;79.30;;;;;;5020279;28;20116;-67
2023/04/11 03:28:04;;;;;;;7.85;5.88;;;12.30;79.30;;;;;;5025013;28;20026;-67
2023/04/11 03:30:29;;;;;;;8.10;6.20;;;12.30;79.30;;;;;;5015054;28;20103;-67
2023/04/11 03:32:59;;;;;;;8.25;6.47;;;12.30;79.40;;;;;;5030186;28;20065;-68
2023/04/11 03:35:24;;;;;;;9.45;6.57;;;12.30;79.40;;;;;;5012763;28;20389;-67
2023/04/11 03:37:50;;;;;;;8.18;6.65;;;12.30;79.50;;;;;;5034853;28;20021;-67
2023/04/11 03:40:17;;;;;;;8.90;6.78;;;12.30;79.50;;;;;;5019308;28;20436;-67
2023/04/11 03:42:44;;;;;;;10.20;6.80;;;12.30;79.60;;;;;;5032868;28;20029;-67
2023/04/11 03:45:10;;;;;;;9.35;6.72;;;12.20;79.50;;;;;;5015832;28;20033;-66
2023/04/11 03:47:37;;;;;;;8.60;6.22;;;12.20;79.60;;;;;;5012106;28;20121;-66
2023/04/11 03:50:02;;;;;;;9.73;5.80;;;12.30;79.70;;;;;;5021421;28;20064;-66
2023/04/11 03:52:28;;;;;;;8.48;6.45;;;12.30;79.70;;;;;;5019252;28;20084;-66
2023/04/11 03:54:54;;;;;;;9.43;6.95;;;12.30;79.80;;;;;;5012202;28;20041;-66
2023/04/11 03:57:19;;;;;;;11.05;6.75;;;12.30;79.90;;;;;;5012981;28;20109;-66
2023/04/11 03:59:46;;;;;;;8.98;6.25;;;12.30;80.00;;;;;;5011369;28;20069;-66
2023/04/11 04:02:13;;;;;;;8.50;6.13;;;12.30;80.20;;;;;;5026732;28;20040;-66
2023/04/11 04:04:39;;;;;;;11.18;6.80;;;12.30;80.50;;;;;;5016483;28;20168;-67
2023/04/11 04:07:04;;;;;;;8.00;6.18;;;12.30;80.90;;;;;;5026082;28;20112;-66
2023/04/11 04:09:30;;;;;;;9.10;6.78;;;12.30;81.50;;;;;;5015016;28;20381;-66
2023/04/11 04:11:56;;;;;;;8.73;6.70;;;12.30;81.80;;;;;;5031182;28;20040;-66
2023/04/11 04:14:22;;;;;;;8.52;6.93;;;12.30;82.00;;;;;;5031812;28;20029;-66
2023/04/11 04:16:47;;;;;;;8.20;6.50;;;12.30;82.20;;;;;;5023069;28;20063;-67
2023/04/11 04:19:13;;;;;;;10.75;7.47;;;12.30;82.40;;;;;;5017640;28;20492;-66
2023/04/11 04:21:38;;;;;;;8.90;6.75;;;12.30;82.70;;;;;;5013382;28;20132;-67
2023/04/11 04:24:05;;;;;;;12.10;6.97;;;12.30;82.90;;;;;;5014107;28;20090;-67
2023/04/11 04:26:30;;;;;;;9.05;6.70;;;12.30;83.20;;;;;;5026056;28;20021;-67
2023/04/11 04:29:03;;;;;;;9.65;7.35;;;12.30;83.50;;;;;;5022778;28;20061;-67
2023/04/11 04:31:32;;;;;;;9.10;6.93;;;12.30;83.70;;;;;;5011298;28;20037;-67
2023/04/11 04:34:07;;;;;;;8.52;6.78;;;12.20;84.10;;;;;;5017950;28;20056;-67
2023/04/11 04:36:45;;;;;;;8.65;7.20;;;12.30;84.50;;;;;;5013392;28;20385;-66
2023/04/11 04:39:18;;;;;;;10.15;7.28;;;12.30;85.10;;;;;;5019912;28;20114;-65
2023/04/11 04:41:48;;;;;;;9.82;7.43;;;12.20;85.70;;;;;;5025928;28;20026;-66
2023/04/11 04:44:15;;;;;;;8.57;7.38;;;12.20;86.60;;;;;;5011518;28;20068;-65
2023/04/11 04:46:41;;;;;;;9.00;6.57;;;12.20;87.10;;;;;;5011757;28;20038;-67
2023/04/11 04:49:07;;;;;;;9.45;6.70;;;12.20;87.90;;;;;;5014303;28;20033;-66
2023/04/11 04:51:34;;;;;;;8.95;6.47;;;12.20;88.50;;;;;;5026100;28;20026;-67
2023/04/11 04:53:59;;;;;;;8.88;6.95;;;12.10;89.10;;;;;;5033351;28;20075;-67
2023/04/11 04:56:29;;;;;;;8.52;7.07;;;12.10;89.80;;;;;;5010151;28;20421;-66
2023/04/11 04:58:55;;;;;;;10.23;6.43;;;12.10;90.20;;;;;;5015197;28;20037;-66
2023/04/11 05:01:25;;;;;;;10.63;6.78;;;12.00;90.40;;;;;;5030899;28;20103;-67
2023/04/11 05:03:57;;;;;;;12.27;7.03;;;12.00;90.60;;;;;;5013378;28;20433;-66
2023/04/11 05:06:30;;;;;;;9.48;7.22;;;12.00;90.90;;;;;;5022576;28;20034;-66
2023/04/11 05:08:57;;;;;;;9.20;7.03;;;12.00;91.20;;;;;;5020304;28;20508;-66
2023/04/11 05:11:24;;;;;;;9.23;7.28;;;11.90;91.30;;;;;;5022785;28;20041;-66
2023/04/11 05:13:49;;;;;;;9.77;7.38;;;11.90;91.50;;;;;;5039404;28;20060;-66
2023/04/11 05:16:18;;;;;;;32.63;8.10;;;11.90;91.80;;;;;;5012355;28;20498;-66
2023/04/11 05:18:44;;;;;;;9.93;7.25;;;11.90;92.00;;;;;;5031333;28;20029;-67
2023/04/11 05:21:10;;;;;;;11.95;7.43;;;11.80;92.20;;;;;;5014720;28;20380;-67
2023/04/11 05:23:36;;;;;;;10.80;7.78;;;11.80;92.40;;;;;;5012363;28;20062;-67
2023/04/11 05:26:02;;;;;;;12.02;7.70;;;11.80;92.60;;;;;;5039734;28;20610;-67
2023/04/11 05:28:29;;;;;;;10.13;7.43;;;11.80;92.70;;;;;;5011236;28;20053;-67
2023/04/11 05:30:54;;;;;;;9.10;7.15;;;11.70;92.90;;;;;;5012964;28;20040;-64
2023/04/11 05:33:22;;;;;;;9.65;7.05;;;11.70;93.10;;;;;;5020045;28;20038;-65
2023/04/11 05:35:48;;;;;;;10.57;6.93;;;11.70;93.30;;;;;;5020077;28;20379;-65
2023/04/11 05:38:13;;;;;;;11.95;8.20;;;11.70;93.30;;;;;;5010962;28;20029;-65
2023/04/11 05:40:39;;;;;;;9.43;7.30;;;11.60;93.50;;;;;;5020012;28;20032;-65
2023/04/11 05:43:05;;;;;;;9.55;7.25;;;11.60;93.60;;;;;;5019850;28;20021;-66
2023/04/11 05:45:30;;;;;;;9.82;7.53;;;11.60;93.90;;;;;;5011070;28;20395;-64
2023/04/11 05:47:56;;;;;;;10.68;7.68;;;11.60;94.00;;;;;;5017424;28;20026;-65
2023/04/11 05:50:22;;;;;;;10.93;7.68;;;11.60;94.30;;;;;;5032811;28;20029;-65
2023/04/11 05:52:47;;;;;;;10.85;7.25;;;11.60;94.50;;;;;;5028279;28;20484;-64
2023/04/11 05:55:13;;;;;;;11.43;8.55;;;11.50;94.70;;;;;;5045572;28;20558;-65
2023/04/11 05:57:38;;;;;;;10.65;8.02;;;11.50;94.80;;;;;;5022512;28;20175;-67
2023/04/11 06:00:12;;;;;;;10.93;7.88;;;11.50;95.00;;;;;;5028217;28;20405;-68
2023/04/11 06:02:40;;;;;;;11.00;7.82;;;11.60;95.20;;;;;;5019549;28;20374;-68
2023/04/11 06:05:06;;;;;;;9.25;6.78;;;11.60;95.30;;;;;;5013930;28;20045;-68
2023/04/11 06:07:32;;;;;;;10.85;7.40;;;11.60;95.50;;;;;;5014031;28;20053;-68
2023/04/11 06:09:58;;;;;;;9.75;6.80;;;11.50;95.60;;;;;;5029786;28;20481;-68
2023/04/11 06:12:23;;;;;;;9.50;7.43;;;11.60;95.80;;;;;;5017072;28;20141;-68
2023/04/11 06:14:49;;;;;;;10.05;7.78;;;11.60;96.00;;;;;;5014685;28;20046;-68
2023/04/11 06:17:15;;;;;;;8.77;6.75;;;11.60;96.10;;;;;;5030314;28;20021;-68
2023/04/11 06:19:40;;;;;;;15.05;7.78;;;11.60;96.40;;;;;;5026737;28;20388;-67
2023/04/11 06:22:06;;;;;;;10.85;7.53;;;11.70;96.50;;;;;;5018747;28;20397;-66
2023/04/11 06:24:38;;;;;;;10.18;7.53;;;11.70;96.70;;;;;;5029513;28;20025;-66
2023/04/11 06:27:08;;;;;;;11.18;7.18;;;11.80;96.90;;;;;;5032084;28;20033;-67
2023/04/11 06:29:34;;;;;;;10.85;7.70;;;11.80;97.00;;;;;;5023127;28;20025;-67
2023/04/11 06:32:00;;;;;;;11.88;7.68;;;11.90;97.10;;;;;;5025309;28;20127;-67
2023/04/11 06:34:26;;;;;;;10.82;8.32;;;11.90;97.30;;;;;;5027330;28;20435;-67
2023/04/11 06:36:52;;;;;;;9.32;7.13;;;12.00;97.40;;;;;;5022166;28;20052;-68
2023/04/11 06:39:17;;;;;;;12.73;7.75;;;12.00;97.50;;;;;;5020576;28;20033;-67
2023/04/11 06:41:43;;;;;;;11.63;7.88;;;12.00;97.60;;;;;;5017695;28;20037;-66
2023/04/11 06:44:09;;;;;;;10.27;7.75;;;12.10;97.60;;;;;;5019733;28;20372;-67
2023/04/11 06:46:35;;;;;;;12.50;8.40;;;12.10;97.60;;;;;;5033515;28;20031;-63
2023/04/11 06:49:02;;;;;;;13.73;7.97;;;12.10;97.90;;;;;;5029777;28;20030;-64
2023/04/11 06:51:28;;;;;;;11.02;8.35;;;12.10;97.80;;;;;;5032275;28;20111;-62
2023/04/11 06:53:54;;;;;;;11.43;7.97;;;12.10;97.80;;;;;;5037628;28;20025;-63
2023/04/11 06:56:19;;;;;;;12.15;8.13;;;12.10;97.90;;;;;;5015175;28;20121;-63
2023/04/11 06:58:45;;;;;;;11.07;7.55;;;12.20;98.00;;;;;;5019462;28;20351;-63
2023/04/11 07:01:13;;;;;;;11.50;7.43;;;12.20;98.00;;;;;;5016114;28;20040;-63
2023/04/11 07:03:38;;;;;;;10.35;8.27;;;12.20;98.10;;;;;;5014833;28;20049;-62
2023/04/11 07:06:06;;;;;;;10.25;7.50;;;12.20;98.20;;;;;;5016899;28;20374;-63
2023/04/11 07:08:32;;;;;;;10.70;7.05;;;12.20;98.20;;;;;;5021945;28;20037;-62
2023/04/11 07:10:57;;;;;;;9.95;7.60;;;12.30;98.30;;;;;;5015571;28;20584;-63
2023/04/11 07:13:23;;;;;;;9.82;7.22;;;12.30;98.40;;;;;;5037721;28;21955;-62
2023/04/11 07:15:49;;;;;;;9.77;6.60;;;12.30;98.50;;;;;;5018073;28;20037;-62
2023/04/11 07:18:14;;;;;;;9.30;7.80;;;12.40;98.60;;;;;;5020658;28;20538;-68
2023/04/11 07:20:40;;;;;;;10.13;7.32;;;12.40;98.70;;;;;;5021934;28;20113;-67
2023/04/11 07:23:05;;;;;;;10.75;7.18;;;12.40;98.70;;;;;;5035255;28;20030;-67
2023/04/11 07:25:32;;;;;;;9.75;7.30;;;12.40;98.80;;;;;;5017474;28;20441;-67
2023/04/11 07:27:59;;;;;;;8.95;6.85;;;12.50;99.00;;;;;;5025216;28;20025;-67
2023/04/11 07:30:25;;;;;;;9.82;7.50;;;12.50;98.80;;;;;;5019195;28;20034;-67
2023/04/11 07:32:51;;;;;;;10.55;7.88;;;12.60;98.90;;;;;;5016166;28;20072;-67
2023/04/11 07:35:17;;;;;;;9.23;7.45;;;12.70;98.90;;;;;;5034851;28;20037;-68
2023/04/11 07:37:44;;;;;;;10.90;7.85;;;12.70;99.00;;;;;;5012600;28;20462;-67
2023/04/11 07:40:12;;;;;;;12.93;8.38;;;12.70;99.00;;;;;;5033897;28;20105;-67
2023/04/11 07:42:38;;;;;;;12.05;8.02;;;12.70;99.00;;;;;;5013062;28;20111;-67
2023/04/11 07:45:05;;;;;;;10.77;7.35;;;12.70;99.00;;;;;;5045050;28;20496;-69
2023/04/11 07:47:30;;;;;;;11.13;7.40;;;12.80;99.10;;;;;;5030682;28;20041;-68
2023/04/11 07:49:57;;;;;;;11.00;7.55;;;12.80;99.10;;;;;;5026404;28;20029;-68
2023/04/11 07:52:23;;;;;;;11.20;7.10;;;12.80;99.10;;;;;;5013225;28;20037;-69
2023/04/11 07:54:48;;;;;;;9.60;7.55;;;12.90;99.10;;;;;;5030380;28;20066;-68
2023/04/11 07:57:14;;;;;;;10.80;7.85;;;12.90;99.20;;;;;;5028878;28;20496;-69
2023/04/11 07:59:40;;;;;;;10.18;7.43;;;12.90;99.20;;;;;;5012914;28;20069;-69
2023/04/11 08:02:06;;;;;;;10.18;7.28;;;13.00;99.30;;;;;;5016689;28;20116;-66
2023/04/11 08:04:32;;;;;;;9.07;7.07;;;13.00;99.20;;;;;;5015466;28;20029;-68
2023/04/11 08:06:58;;;;;;;10.25;6.90;;;13.10;99.30;;;;;;5023114;28;20039;-67
2023/04/11 08:09:24;;;;;;;9.38;6.25;;;13.10;99.20;;;;;;5024012;28;20067;-68
2023/04/11 08:11:50;;;;;;;8.45;6.50;;;13.10;99.20;;;;;;5024342;28;20824;-67
2023/04/11 08:14:15;;;;;;;11.55;6.72;;;13.10;99.20;;;;;;5028374;28;20132;-68
2023/04/11 08:16:41;;;;;;;9.23;6.85;;;13.10;99.20;;;;;;5015681;28;20030;-67
2023/04/11 08:19:09;;;;;;;12.40;7.47;;;13.10;99.20;;;;;;5014749;28;20066;-67
2023/04/11 08:21:34;;;;;;;11.50;6.97;;;13.10;99.20;;;;;;5029098;28;20424;-69
2023/04/11 08:24:00;;;;;;;9.30;6.57;;;13.10;99.20;;;;;;5018687;28;20030;-68
2023/04/11 08:26:26;;;;;;;8.65;6.63;;;13.10;99.10;;;;;;5030231;28;20396;-68
2023/04/11 08:28:51;;;;;;;9.75;6.35;;;13.20;99.10;;;;;;5021672;28;20033;-68
2023/04/11 08:31:17;;;;;;;7.63;5.63;;;13.10;99.00;;;;;;5021210;28;20080;-68
2023/04/11 08:33:42;;;;;;;8.68;6.25;;;13.10;98.80;;;;;;5012456;28;20076;-68
2023/04/11 08:36:09;;;;;;;8.60;5.57;;;13.00;98.80;;;;;;5029573;28;20068;-67
2023/04/11 08:38:35;;;;;;;12.05;5.78;;;13.00;98.80;;;;;;5023854;28;20547;-67
2023/04/11 08:41:01;;;;;;;7.20;4.55;;;13.00;98.80;;;;;;5023634;28;20037;-67
2023/04/11 08:43:26;;;;;;;6.68;4.03;;;12.90;98.40;;;;;;5016437;28;20033;-67
2023/04/11 08:45:52;;;;;;;5.10;3.45;;;12.90;98.10;;;;;;5014707;28;20025;-68
2023/04/11 08:48:20;;;;;;;5.88;3.35;;;12.80;97.90;;;;;;5011915;28;20118;-68
2023/04/11 08:50:46;;;;;;;6.13;3.33;;;12.80;97.50;;;;;;5028773;28;20498;-69
2023/04/11 08:53:13;;;;;;;6.00;3.00;;;12.70;97.30;;;;;;5011403;28;20117;-69
2023/04/11 08:55:47;;;;;;;5.72;2.60;;;12.70;97.10;;;;;;5033151;28;20033;-69
2023/04/11 08:58:13;;;;;;;6.53;3.35;;;12.60;97.00;;;;;;5023514;28;20025;-69
2023/04/11 09:00:39;;;;;;;6.40;3.28;;;12.50;97.10;;;;;;5032459;28;20057;-69
2023/04/11 09:03:06;;;;;;;6.13;3.67;;;12.50;97.10;;;;;;5019979;28;20117;-69
2023/04/11 09:05:42;;;;;;;7.97;3.38;;;12.60;97.00;;;;;;5013200;28;20080;-69
2023/04/11 09:08:13;;;;;;;7.40;3.08;;;12.50;96.80;;;;;;5036455;28;20029;-69
2023/04/11 09:10:40;;;;;;;6.93;3.83;;;12.60;96.80;;;;;;5025381;28;20116;-69
2023/04/11 09:13:24;;;;;;;6.22;3.38;;;12.60;96.80;;;;;;5026041;28;20040;-69
2023/04/11 09:16:19;;;;;;;6.23;2.60;;;12.70;96.80;;;;;;5013804;28;20053;-69
2023/04/11 09:18:45;;;;;;;6.18;2.63;;;12.80;96.70;;;;;;5026735;28;20039;-69
2023/04/11 09:21:15;;;;;;;4.75;2.92;;;12.90;96.60;;;;;;5027154;28;20241;-69
2023/04/11 09:23:42;;;;;;;6.05;2.47;;;12.90;96.50;;;;;;5012235;28;20030;-69
2023/04/11 09:26:09;;;;;;;4.45;2.47;;;12.90;96.40;;;;;;5045390;28;20037;-69
2023/04/11 09:28:52;;;;;;;4.22;2.47;;;13.00;96.40;;;;;;5042384;28;20108;-69
2023/04/11 09:31:18;;;;;;;6.97;3.05;;;13.10;96.20;;;;;;5038150;28;20051;-69
2023/04/11 09:33:58;;;;;;;6.50;2.70;;;13.20;96.10;;;;;;5016367;28;20188;-70
2023/04/11 09:36:25;;;;;;;5.35;2.63;;;13.30;96.10;;;;;;5022976;28;20033;-70
2023/04/11 09:38:52;;;;;;;5.05;2.35;;;13.40;96.00;;;;;;5021062;28;20029;-70
2023/04/11 09:41:32;;;;;;;5.53;2.42;;;13.50;95.70;;;;;;5037817;28;20033;-70
2023/04/11 09:43:59;;;;;;;8.05;2.60;;;13.60;95.50;;;;;;5033049;28;20026;-69
2023/04/11 09:46:25;;;;;;;8.00;2.90;;;13.70;95.30;;;;;;5035527;28;20029;-69
2023/04/11 09:48:51;;;;;;;7.43;2.88;;;13.80;95.20;;;;;;5029509;28;20681;-68
2023/04/11 09:51:18;;;;;;;7.85;3.13;;;13.80;95.00;;;;;;5024438;28;20111;-68
2023/04/11 09:53:44;;;;;;;4.00;2.05;;;13.80;94.60;;;;;;5035157;28;20037;-69
2023/04/11 09:56:11;;;;;;;5.20;2.75;;;13.80;94.50;;;;;;5036082;28;20060;-68
2023/04/11 09:58:38;;;;;;;5.13;2.88;;;13.80;94.40;;;;;;5025149;28;20043;-69
2023/04/11 10:01:07;;;;;;;4.40;2.30;;;13.90;94.50;;;;;;5029654;28;20056;-69
2023/04/11 10:03:34;;;;;;;6.00;2.58;;;14.00;94.40;;;;;;5012319;28;20029;-69
2023/04/11 10:06:03;;;;;;;5.32;2.78;;;14.10;94.40;;;;;;5032122;28;20292;-69
2023/04/11 10:08:35;;;;;;;5.95;2.70;;;14.20;94.40;;;;;;5033255;28;20025;-69
2023/04/11 10:11:08;;;;;;;5.50;2.35;;;14.30;94.30;;;;;;5026217;28;20508;-68
2023/04/11 10:13:37;;;;;;;4.90;1.85;;;14.40;94.30;;;;;;5015567;28;20128;-69
2023/04/11 10:16:17;;;;;;;5.10;2.50;;;14.50;93.90;;;;;;5054080;28;20496;-69
2023/04/11 10:18:51;;;;;;;4.40;2.35;;;14.50;93.70;;;;;;5018909;28;20386;-68
2023/04/11 10:21:32;;;;;;;5.07;2.40;;;14.60;93.60;;;;;;5020045;28;20078;-69
2023/04/11 10:24:14;;;;;;;5.57;2.53;;;14.70;93.50;;;;;;5026759;28;20029;-68
2023/04/11 10:26:51;;;;;;;6.15;2.33;;;14.80;93.10;;;;;;5022033;28;20029;-69
2023/04/11 10:29:32;;;;;;;5.22;2.20;;;14.80;92.60;;;;;;5022665;28;20026;-69
2023/04/11 10:32:17;;;;;;;5.70;2.00;;;14.90;92.70;;;;;;5025665;28;20396;-69
2023/04/11 10:34:49;;;;;;;5.43;1.88;;;14.90;92.50;;;;;;5026471;28;20034;-69
2023/04/11 10:37:16;;;;;;;5.10;2.13;;;14.90;92.10;;;;;;5028253;28;20052;-69
2023/04/11 10:39:50;;;;;;;3.95;1.70;;;14.90;91.70;;;;;;5024702;28;20021;-69
2023/04/11 10:42:28;;;;;;;;;;;15.00;91.60;;;;;;5025777;28;20021;-69
2023/04/11 10:45:18;;;;;;;4.85;2.17;;;15.00;91.60;;;;;;5018200;28;19913;-68
2023/04/11 10:47:50;;;;;;;6.70;2.50;;;15.10;91.30;;;;;;5019966;28;20091;-69
2023/04/11 10:50:25;;;;;;;4.30;1.90;;;15.10;90.70;;;;;;5011723;28;20501;-70
2023/04/11 10:52:52;;;;;;;3.58;1.85;;;15.10;90.90;;;;;;5027984;28;20033;-69
2023/04/11 10:55:18;;;;;;;4.20;2.35;;;15.00;90.70;;;;;;5032393;28;20512;-70
2023/04/11 10:58:05;;;;;;;2.85;1.73;;;15.00;90.30;;;;;;5037567;28;20029;-69
2023/04/11 11:00:52;;;;;;;5.68;1.90;;;14.90;90.00;;;;;;5031989;28;20049;-69
2023/04/11 11:03:25;;;;;;;4.32;2.13;;;14.80;88.80;;;;;;5023926;28;20466;-69
2023/04/11 11:06:17;;;;;;;4.20;1.80;;;14.70;89.50;;;;;;5028385;28;20029;-69
2023/04/11 11:08:45;;;;;;;4.90;2.40;;;14.60;89.30;;;;;;5012919;28;20037;-68
2023/04/11 11:11:11;;;;;;;5.10;1.70;;;14.60;89.80;;;;;;5023318;28;20041;-70
2023/04/11 11:13:54;;;;;;;2.83;1.85;;;14.60;90.10;;;;;;5028969;28;20044;-70
2023/04/11 11:16:22;;;;;;;4.35;1.67;;;14.60;90.20;;;;;;5020415;28;20121;-70
2023/04/11 11:18:52;;;;;;;5.18;2.00;;;14.60;90.30;;;;;;5013508;28;20030;-70
2023/04/11 11:21:27;;;;;;;3.15;1.60;;;14.60;90.30;;;;;;5011921;28;20150;-70
2023/04/11 11:23:53;;;;;;;4.72;2.08;;;14.60;90.30;;;;;;5015233;28;20076;-70
2023/04/11 11:26:19;;;;;;;4.97;1.80;;;14.60;90.40;;;;;;5033521;28;20034;-69
2023/04/11 11:28:47;;;;;;;2.90;1.65;;;14.70;90.60;;;;;;5013235;28;20150;-69
2023/04/11 11:31:12;;;;;;;4.13;1.50;;;14.80;90.40;;;;;;5013634;28;20037;-69
2023/04/11 11:33:40;;;;;;;3.45;2.00;;;14.80;90.40;;;;;;5032271;28;20031;-70
2023/04/11 11:36:08;;;;;;;2.83;1.58;;;14.80;90.40;;;;;;5023298;28;20092;-70
2023/04/11 11:38:34;;;;;;;3.08;1.65;;;14.90;90.30;;;;;;5011983;28;20026;-69
2023/04/11 11:41:00;;;;;;;4.80;1.90;;;14.90;90.10;;;;;;5016205;28;20038;-70
2023/04/11 11:43:26;;;;;;;5.13;2.00;;;14.90;90.10;;;;;;5016319;28;20029;-69
2023/04/11 11:46:14;;;;;;;5.53;1.80;;;15.00;89.90;;;;;;5013323;28;20033;-70
2023/04/11 11:48:57;;;;;;;4.35;1.95;;;15.10;90.10;;;;;;5024819;28;20087;-70
2023/04/11 11:51:22;;;;;;;4.90;1.60;;;15.20;90.10;;;;;;5015277;28;20121;-69
2023/04/11 11:54:21;;;;;;;2.83;1.58;;;15.30;90.00;;;;;;5017632;28;20512;-69
2023/04/11 11:56:51;;;;;;;3.15;1.50;;;15.40;89.50;;;;;;5035931;28;20060;-69
2023/04/11 11:59:26;;;;;;;2.60;1.67;;;15.50;89.10;;;;;;5034996;28;20128;-69
2023/04/11 12:01:52;;;;;;;4.20;1.80;;;15.60;88.90;;;;;;5031747;28;20033;-69
2023/04/11 12:04:19;;;;;;;4.68;1.50;;;15.60;88.50;;;;;;5029896;28;20416;-69
2023/04/11 12:06:45;;;;;;;4.97;1.60;;;15.70;87.80;;;;;;5016450;28;20044;-69
2023/04/11 12:09:11;;;;;;;4.38;1.75;;;15.70;87.50;;;;;;5027251;28;20033;-69
2023/04/11 12:11:41;;;;;;;3.10;1.70;;;15.80;87.10;;;;;;5031426;28;20131;-69
2023/04/11 12:14:08;;;;;;;4.07;2.00;;;15.80;86.80;;;;;;5032525;28;20103;-70
2023/04/11 12:16:36;;;;;;;3.80;2.17;;;15.70;86.50;;;;;;5013388;28;20063;-70
2023/04/11 12:19:03;;;;;;;4.20;1.60;;;15.70;86.20;;;;;;5012228;28;20052;-70
2023/04/11 12:21:29;;;;;;;2.45;1.25;;;15.60;85.80;;;;;;5011295;28;20033;-69
2023/04/11 12:23:55;;;;;;;1.98;1.20;;;15.60;84.50;;;;;;5038508;28;20075;-70
2023/04/11 12:26:22;;;;;;;3.85;1.63;;;15.50;84.50;;;;;;5014110;28;20029;-70
2023/04/11 12:28:49;;;;;;;4.00;1.45;;;15.40;84.30;;;;;;5034309;28;20037;-69
2023/04/11 12:31:15;;;;;;;4.45;1.77;;;15.30;85.90;;;;;;5033132;28;20025;-69
2023/04/11 12:33:40;;;;;;;2.63;1.35;;;15.20;86.00;;;;;;5031657;28;20044;-70
2023/04/11 12:36:06;;;;;;;2.95;1.42;;;15.00;85.70;;;;;;5017158;28;20036;-70
2023/04/11 12:38:32;;;;;;;3.10;2.17;;;14.90;86.30;;;;;;5021403;28;20121;-69
2023/04/11 12:40:58;;;;;;;5.15;1.75;;;14.80;86.20;;;;;;5011207;28;20601;-69
2023/04/11 12:43:24;;;;;;;3.78;1.13;;;14.80;86.00;;;;;;5017463;28;20103;-69
2023/04/11 12:45:50;;;;;;;2.50;1.67;;;14.80;86.00;;;;;;5033768;28;20037;-69
2023/04/11 12:48:15;;;;;;;3.90;2.28;;;14.70;86.00;;;;;;5016167;28;20113;-69